createdAt,value
2023-03-26T00:01:24.890Z,63.95
2023-03-26T00:04:04.569Z,63.76
2023-03-26T00:06:45.629Z,63.87
2023-03-26T00:09:25.991Z,63.72
2023-03-26T00:12:05.411Z,63.39
2023-03-26T00:14:49.964Z,63.15
2023-03-26T00:17:29.581Z,63.67
2023-03-26T00:20:09.310Z,63.12
2023-03-26T00:22:49.127Z,62.77
2023-03-26T00:25:29.522Z,63.00
2023-03-26T00:28:09.118Z,63.04
2023-03-26T00:30:53.545Z,62.77
2023-03-26T00:33:36.254Z,62.71
2023-03-26T00:36:18.698Z,62.54
2023-03-26T00:38:58.152Z,62.41
2023-03-26T00:41:38.090Z,62.31
2023-03-26T00:44:17.544Z,62.05
2023-03-26T00:47:01.964Z,61.50
2023-03-26T00:49:41.477Z,61.56
2023-03-26T00:52:20.832Z,61.47
2023-03-26T00:55:00.232Z,61.66
2023-03-26T00:57:39.638Z,61.40
2023-03-26T01:00:23.299Z,60.90
2023-03-26T01:03:08.038Z,60.87
2023-03-26T01:05:54.200Z,60.82
2023-03-26T01:08:39.411Z,60.92
2023-03-26T01:11:21.806Z,61.15
2023-03-26T01:14:05.261Z,61.20
2023-03-26T01:16:48.392Z,61.29
2023-03-26T01:19:39.193Z,61.47
2023-03-26T01:22:22.785Z,61.68
2023-03-26T01:25:08.461Z,61.68
2023-03-26T01:27:53.632Z,61.72
2023-03-26T01:30:42.779Z,61.95
2023-03-26T01:33:37.760Z,62.04
2023-03-26T01:36:27.881Z,62.42
2023-03-26T01:39:19.997Z,62.55
2023-03-26T01:42:10.279Z,62.33
2023-03-26T01:45:00.161Z,62.65
2023-03-26T01:47:42.306Z,62.71
2023-03-26T01:50:22.056Z,62.73
2023-03-26T01:53:01.421Z,62.94
2023-03-26T01:55:57.915Z,62.83
2023-03-26T01:58:55.835Z,62.94
2023-03-26T02:01:46.577Z,63.06
2023-03-26T02:04:33.601Z,62.78
2023-03-26T02:07:24.862Z,63.04
2023-03-26T02:10:11.659Z,63.19
2023-03-26T02:12:52.377Z,63.28
2023-03-26T02:15:36.813Z,63.42
2023-03-26T02:18:17.018Z,63.50
2023-03-26T02:20:56.954Z,63.55
2023-03-26T02:23:39.791Z,63.53
2023-03-26T02:26:19.169Z,63.65
2023-03-26T02:28:58.519Z,63.70
2023-03-26T02:31:43.021Z,64.02
2023-03-26T02:34:23.329Z,64.24
2023-03-26T02:37:03.198Z,64.33
2023-03-26T02:39:43.607Z,64.38
2023-03-26T02:42:23.087Z,64.41
2023-03-26T02:45:02.658Z,64.42
2023-03-26T02:47:47.266Z,64.60
2023-03-26T02:50:26.656Z,64.55
2023-03-26T02:53:06.228Z,64.52
2023-03-26T02:55:45.584Z,64.74
2023-03-26T02:58:26.553Z,64.76
2023-03-26T03:01:06.784Z,65.40
2023-03-26T03:03:51.375Z,65.12
2023-03-26T03:06:32.355Z,65.49
2023-03-26T03:09:11.683Z,65.96
2023-03-26T03:11:51.096Z,65.80
2023-03-26T03:14:30.437Z,66.14
2023-03-26T03:17:09.767Z,66.16
2023-03-26T03:19:54.274Z,65.95
2023-03-26T03:22:35.052Z,65.85
2023-03-26T03:25:15.619Z,65.83
2023-03-26T03:27:55.186Z,65.57
2023-03-26T03:30:34.518Z,65.76
2023-03-26T03:33:14.334Z,65.86
2023-03-26T03:36:00.555Z,65.78
2023-03-26T03:38:39.953Z,66.15
2023-03-26T03:41:19.800Z,66.30
2023-03-26T03:44:00.975Z,65.95
2023-03-26T03:46:40.458Z,66.04
2023-03-26T03:49:19.878Z,65.75
2023-03-26T03:52:04.644Z,66.07
2023-03-26T03:54:43.999Z,66.36
2023-03-26T03:57:23.394Z,66.47
2023-03-26T04:00:04.530Z,66.40
2023-03-26T04:02:49.023Z,66.52
2023-03-26T04:05:28.426Z,67.00
2023-03-26T04:08:13.326Z,67.37
2023-03-26T04:10:52.675Z,67.70
2023-03-26T04:13:32.473Z,68.19
2023-03-26T04:16:12.447Z,68.11
2023-03-26T04:18:51.815Z,68.34
2023-03-26T04:21:31.662Z,68.70
2023-03-26T04:24:17.325Z,68.66
2023-03-26T04:26:56.965Z,68.89
2023-03-26T04:29:44.033Z,68.97
2023-03-26T04:32:31.015Z,69.38
2023-03-26T04:35:11.513Z,69.41
2023-03-26T04:37:51.949Z,69.66
2023-03-26T04:40:38.594Z,69.58
2023-03-26T04:43:20.796Z,70.01
2023-03-26T04:46:04.595Z,69.81
2023-03-26T04:48:44.457Z,70.10
2023-03-26T04:51:25.744Z,69.85
2023-03-26T04:54:09.291Z,69.75
2023-03-26T04:57:00.783Z,70.11
2023-03-26T04:59:42.779Z,70.25
2023-03-26T05:02:22.097Z,69.87
2023-03-26T05:05:04.229Z,69.79
2023-03-26T05:07:43.662Z,69.92
2023-03-26T05:10:24.912Z,69.83
2023-03-26T05:13:09.374Z,69.81
2023-03-26T05:15:48.728Z,69.97
2023-03-26T05:18:28.003Z,70.14
2023-03-26T05:21:07.624Z,70.21
2023-03-26T05:23:46.948Z,70.49
2023-03-26T05:26:27.679Z,70.53
2023-03-26T05:29:12.116Z,70.29
2023-03-26T05:31:51.840Z,70.24
2023-03-26T05:34:31.202Z,70.83
2023-03-26T05:37:11.281Z,70.81
2023-03-26T05:39:50.588Z,71.37
2023-03-26T05:42:30.215Z,70.97
2023-03-26T05:45:16.703Z,71.36
2023-03-26T05:47:59.614Z,71.28
2023-03-26T05:50:38.967Z,71.42
2023-03-26T05:53:19.479Z,70.88
2023-03-26T05:56:00.048Z,71.16
2023-03-26T05:58:43.327Z,71.34
2023-03-26T06:01:27.723Z,71.13
2023-03-26T06:04:07.386Z,71.10
2023-03-26T06:06:46.906Z,70.66
2023-03-26T06:09:26.281Z,71.19
2023-03-26T06:12:05.651Z,71.47
2023-03-26T06:14:45.249Z,71.22
2023-03-26T06:17:29.637Z,71.13
2023-03-26T06:20:09.643Z,70.94
2023-03-26T06:22:49.424Z,70.71
2023-03-26T06:25:28.962Z,70.25
2023-03-26T06:28:08.265Z,70.56
2023-03-26T06:30:47.848Z,70.55
2023-03-26T06:33:32.479Z,70.78
2023-03-26T06:36:12.919Z,70.59
2023-03-26T06:38:52.352Z,71.00
2023-03-26T06:41:31.763Z,71.19
2023-03-26T06:44:11.133Z,71.49
2023-03-26T06:46:51.530Z,71.59
2023-03-26T06:49:36.163Z,71.86
2023-03-26T06:52:15.621Z,72.02
2023-03-26T06:54:54.992Z,72.08
2023-03-26T06:57:34.541Z,72.09
2023-03-26T07:00:15.385Z,71.76
2023-03-26T07:02:55.193Z,71.27
2023-03-26T07:05:39.720Z,71.58
2023-03-26T07:08:20.619Z,71.11
2023-03-26T07:11:00.040Z,71.40
2023-03-26T07:13:41.200Z,71.33
2023-03-26T07:16:20.702Z,71.44
2023-03-26T07:19:00.115Z,71.69
2023-03-26T07:21:45.559Z,71.78
2023-03-26T07:24:25.959Z,71.62
2023-03-26T07:27:14.066Z,71.60
2023-03-26T07:29:59.758Z,71.62
2023-03-26T07:32:48.854Z,71.81
2023-03-26T07:35:34.234Z,72.20
2023-03-26T07:38:42.733Z,71.74
2023-03-26T07:41:35.015Z,72.12
2023-03-26T07:44:34.076Z,72.09
2023-03-26T07:47:31.095Z,72.96
2023-03-26T07:50:11.737Z,72.63
2023-03-26T07:52:51.802Z,72.82
2023-03-26T07:55:37.091Z,71.44
2023-03-26T07:58:43.953Z,72.00
2023-03-26T08:01:37.063Z,71.77
2023-03-26T08:04:53.017Z,72.49
2023-03-26T08:07:43.789Z,72.30
2023-03-26T08:10:30.260Z,72.50
2023-03-26T08:13:28.345Z,72.75
2023-03-26T08:16:17.844Z,72.99
2023-03-26T08:19:05.358Z,73.48
2023-03-26T08:21:54.962Z,73.70
2023-03-26T08:24:47.616Z,74.30
2023-03-26T08:27:35.763Z,74.89
2023-03-26T08:30:27.905Z,74.67
2023-03-26T08:33:19.251Z,74.32
2023-03-26T08:36:00.213Z,74.06
2023-03-26T08:38:39.592Z,74.67
2023-03-26T08:41:49.207Z,75.05
2023-03-26T08:45:10.811Z,75.59
2023-03-26T08:48:18.185Z,75.62
2023-03-26T08:51:40.216Z,75.62
2023-03-26T08:54:47.706Z,75.59
2023-03-26T08:57:59.548Z,75.34
2023-03-26T09:01:19.424Z,75.04
2023-03-26T09:04:28.419Z,74.46
2023-03-26T09:07:40.819Z,74.57
2023-03-26T09:10:56.292Z,75.07
2023-03-26T09:14:03.687Z,74.86
2023-03-26T09:17:24.877Z,73.88
2023-03-26T09:20:46.685Z,73.67
2023-03-26T09:23:57.301Z,73.70
2023-03-26T09:26:53.009Z,74.21
2023-03-26T09:30:03.397Z,74.64
2023-03-26T09:33:18.044Z,74.25
2023-03-26T09:36:23.502Z,74.80
2023-03-26T09:39:17.394Z,75.50
2023-03-26T09:42:15.460Z,75.18
2023-03-26T09:45:27.104Z,75.05
2023-03-26T09:48:27.023Z,75.27
2023-03-26T09:51:37.036Z,74.81
2023-03-26T09:54:57.302Z,75.45
2023-03-26T09:57:59.972Z,71.16
2023-03-26T10:00:48.787Z,70.86
2023-03-26T10:03:42.155Z,70.22
2023-03-26T10:06:55.820Z,68.12
2023-03-26T10:09:57.596Z,66.26
2023-03-26T10:12:44.062Z,66.06
2023-03-26T10:15:39.492Z,66.49
2023-03-26T10:18:34.104Z,66.70
2023-03-26T10:21:25.275Z,66.39
2023-03-26T10:24:31.224Z,65.23
2023-03-26T10:27:36.110Z,64.24
2023-03-26T10:30:41.694Z,64.41
2023-03-26T10:33:33.033Z,65.75
2023-03-26T10:36:32.374Z,64.79
2023-03-26T10:39:42.412Z,64.89
2023-03-26T10:43:04.450Z,64.15
2023-03-26T10:46:11.416Z,65.06
2023-03-26T10:49:12.304Z,65.43
2023-03-26T10:52:00.592Z,62.23
2023-03-26T10:55:02.398Z,64.03
2023-03-26T10:57:51.585Z,64.75
2023-03-26T11:00:33.234Z,62.35
2023-03-26T11:03:42.015Z,59.80
2023-03-26T11:06:35.376Z,58.46
2023-03-26T11:09:28.422Z,57.98
2023-03-26T11:12:26.507Z,59.34
2023-03-26T11:15:26.074Z,58.86
2023-03-26T11:18:19.068Z,56.77
2023-03-26T11:21:19.970Z,56.38
2023-03-26T11:24:15.047Z,57.05
2023-03-26T11:27:14.936Z,57.41
2023-03-26T11:30:10.584Z,58.78
2023-03-26T11:32:55.099Z,56.90
2023-03-26T11:35:41.343Z,54.45
2023-03-26T11:38:33.161Z,56.28
2023-03-26T11:41:22.712Z,54.69
2023-03-26T11:44:08.445Z,52.38
2023-03-26T11:46:53.107Z,52.18
2023-03-26T11:49:34.280Z,53.50
2023-03-26T11:52:13.747Z,53.54
2023-03-26T11:55:00.620Z,54.31
2023-03-26T11:57:44.368Z,55.77
2023-03-26T12:00:28.617Z,56.38
2023-03-26T12:03:08.024Z,57.87
2023-03-26T12:05:56.672Z,59.56
2023-03-26T12:08:42.212Z,58.51
2023-03-26T12:11:35.903Z,59.13
2023-03-26T12:14:15.587Z,60.47
2023-03-26T12:17:10.063Z,60.44
2023-03-26T12:19:51.904Z,60.62
2023-03-26T12:22:41.716Z,61.29
2023-03-26T12:25:26.384Z,60.85
2023-03-26T12:28:19.678Z,63.59
2023-03-26T12:31:05.654Z,63.63
2023-03-26T12:33:46.150Z,61.85
2023-03-26T12:36:30.409Z,60.14
2023-03-26T12:40:10.740Z,59.21
2023-03-26T12:44:53.176Z,57.06
2023-03-26T12:45:46.658Z,57.61
2023-03-26T12:48:47.032Z,58.66
2023-03-26T12:51:39.320Z,59.95
2023-03-26T12:54:34.323Z,59.64
2023-03-26T12:57:27.796Z,60.16
2023-03-26T13:00:26.132Z,60.35
2023-03-26T13:03:43.140Z,61.79
2023-03-26T13:07:00.155Z,62.97
2023-03-26T13:10:06.703Z,64.33
2023-03-26T13:12:53.886Z,63.27
2023-03-26T13:15:40.277Z,60.13
2023-03-26T13:18:36.860Z,57.13
2023-03-26T13:21:25.924Z,56.06
2023-03-26T13:24:18.215Z,53.95
2023-03-26T13:27:12.759Z,51.50
2023-03-26T13:30:04.168Z,46.09
2023-03-26T13:32:58.939Z,44.48
2023-03-26T13:36:00.235Z,43.73
2023-03-26T13:39:00.788Z,42.35
2023-03-26T13:41:59.262Z,42.35
2023-03-26T13:45:04.550Z,42.51
2023-03-26T13:47:52.402Z,45.06
2023-03-26T13:50:36.422Z,43.36
2023-03-26T13:53:26.662Z,39.93
2023-03-26T13:56:08.187Z,44.08
2023-03-26T13:58:55.278Z,47.78
2023-03-26T14:01:42.379Z,50.53
2023-03-26T14:04:33.396Z,51.22
2023-03-26T14:07:23.801Z,52.71
2023-03-26T14:10:15.758Z,54.05
2023-03-26T14:13:03.797Z,56.24
2023-03-26T14:15:51.814Z,56.96
2023-03-26T14:18:44.313Z,56.11
2023-03-26T14:21:59.234Z,56.58
2023-03-26T14:25:11.763Z,55.78
2023-03-26T14:28:11.688Z,53.93
2023-03-26T14:31:10.642Z,49.13
2023-03-26T14:34:04.354Z,45.57
2023-03-26T14:37:12.993Z,44.65
2023-03-26T14:40:16.157Z,45.99
2023-03-26T14:43:18.622Z,46.82
2023-03-26T14:46:13.423Z,47.80
2023-03-26T14:49:31.947Z,47.42
2023-03-26T14:52:15.761Z,48.95
2023-03-26T14:55:00.560Z,49.26
2023-03-26T14:58:10.213Z,48.35
2023-03-26T15:01:36.263Z,48.33
2023-03-26T15:04:49.368Z,49.00
2023-03-26T15:07:56.055Z,48.34
2023-03-26T15:11:01.347Z,48.33
2023-03-26T15:14:08.230Z,47.97
2023-03-26T15:17:30.082Z,46.97
2023-03-26T15:20:43.574Z,48.10
2023-03-26T15:23:54.300Z,47.07
2023-03-26T15:27:21.509Z,45.84
2023-03-26T15:30:45.621Z,45.28
2023-03-26T15:34:04.129Z,44.05
2023-03-26T15:37:24.042Z,44.26
2023-03-26T15:40:30.710Z,43.59
2023-03-26T15:43:19.529Z,43.75
2023-03-26T15:46:33.496Z,44.25
2023-03-26T15:49:23.973Z,43.88
2023-03-26T15:52:13.856Z,44.65
2023-03-26T15:55:03.032Z,44.52
2023-03-26T15:57:50.576Z,44.95
2023-03-26T16:00:33.098Z,45.51
2023-03-26T16:03:40.988Z,45.36
2023-03-26T16:06:35.583Z,44.88
2023-03-26T16:09:46.927Z,44.27
2023-03-26T16:12:38.623Z,44.61
2023-03-26T16:15:37.838Z,44.94
2023-03-26T16:18:45.173Z,46.14
2023-03-26T16:21:47.292Z,47.24
2023-03-26T16:24:33.536Z,46.95
2023-03-26T16:27:35.397Z,47.18
2023-03-26T16:30:34.754Z,47.52
2023-03-26T16:33:22.691Z,48.94
2023-03-26T16:36:35.576Z,50.28
2023-03-26T16:39:28.705Z,49.54
2023-03-26T16:42:16.877Z,50.28
2023-03-26T16:45:10.792Z,49.39
2023-03-26T16:48:03.085Z,49.43
2023-03-26T16:50:54.381Z,49.98
2023-03-26T16:53:48.399Z,50.18
2023-03-26T16:56:38.371Z,51.25
2023-03-26T16:59:43.456Z,51.50
2023-03-26T17:02:34.195Z,51.39
2023-03-26T17:05:25.183Z,52.04
2023-03-26T17:08:12.446Z,52.72
2023-03-26T17:11:07.252Z,53.17
2023-03-26T17:14:02.288Z,54.31
2023-03-26T17:16:47.792Z,54.62
2023-03-26T17:19:40.901Z,55.97
2023-03-26T17:22:37.211Z,57.57
2023-03-26T17:25:30.419Z,59.03
2023-03-26T17:28:34.394Z,60.03
2023-03-26T17:31:28.365Z,60.81
2023-03-26T17:34:38.385Z,61.68
2023-03-26T17:37:32.556Z,62.31
2023-03-26T17:40:36.359Z,62.30
2023-03-26T17:43:45.129Z,62.65
2023-03-26T17:46:41.867Z,63.57
2023-03-26T17:49:28.257Z,63.46
2023-03-26T17:52:22.879Z,64.42
2023-03-26T17:55:04.109Z,64.32
2023-03-26T17:57:51.198Z,64.70
2023-03-26T18:00:41.148Z,64.72
2023-03-26T18:03:30.841Z,65.45
2023-03-26T18:06:18.995Z,65.70
2023-03-26T18:09:13.205Z,65.01
2023-03-26T18:12:26.827Z,65.35
2023-03-26T18:15:28.989Z,65.84
2023-03-26T18:18:21.101Z,65.89
2023-03-26T18:21:03.590Z,65.86
2023-03-26T18:23:46.507Z,66.39
2023-03-26T18:26:30.120Z,66.04
2023-03-26T18:29:27.010Z,66.15
2023-03-26T18:32:08.571Z,66.59
2023-03-26T18:34:55.399Z,66.31
2023-03-26T18:37:36.519Z,66.32
2023-03-26T18:40:20.443Z,66.22
2023-03-26T18:43:02.812Z,66.34
2023-03-26T18:45:46.339Z,66.37
2023-03-26T18:48:28.504Z,66.19
2023-03-26T18:51:17.139Z,66.46
2023-03-26T18:53:59.599Z,66.91
2023-03-26T18:56:43.667Z,67.38
2023-03-26T18:59:33.665Z,67.89
2023-03-26T19:02:20.029Z,67.93
2023-03-26T19:04:59.959Z,68.22
2023-03-26T19:07:45.235Z,68.12
2023-03-26T19:10:26.731Z,68.86
2023-03-26T19:13:08.650Z,69.06
2023-03-26T19:15:50.398Z,67.82
2023-03-26T19:18:33.752Z,66.47
2023-03-26T19:21:14.468Z,64.54
2023-03-26T19:24:00.801Z,63.89
2023-03-26T19:26:40.468Z,64.27
2023-03-26T19:29:23.205Z,62.85
2023-03-26T19:32:10.306Z,62.56
2023-03-26T19:34:52.559Z,62.79
2023-03-26T19:37:35.080Z,62.97
2023-03-26T19:40:31.096Z,62.79
2023-03-26T19:43:10.497Z,63.14
2023-03-26T19:45:59.606Z,63.62
2023-03-26T19:48:46.247Z,63.68
2023-03-26T19:51:30.135Z,64.14
2023-03-26T19:54:20.406Z,63.83
2023-03-26T19:57:04.941Z,63.24
2023-03-26T19:59:44.256Z,63.72
2023-03-26T20:02:30.422Z,64.09
2023-03-26T20:05:09.772Z,64.24
2023-03-26T20:07:51.424Z,64.50
2023-03-26T20:10:30.875Z,64.59
2023-03-26T20:13:22.374Z,64.65
2023-03-26T20:16:09.811Z,65.30
2023-03-26T20:18:52.223Z,65.65
2023-03-26T20:21:33.474Z,66.03
2023-03-26T20:24:19.766Z,66.33
2023-03-26T20:26:59.103Z,66.17
2023-03-26T20:29:43.637Z,66.50
2023-03-26T20:32:28.461Z,66.67
2023-03-26T20:35:08.468Z,66.85
2023-03-26T20:37:48.290Z,67.29
2023-03-26T20:40:28.132Z,66.99
2023-03-26T20:43:07.854Z,67.15
2023-03-26T20:45:53.255Z,67.59
2023-03-26T20:48:32.928Z,68.17
2023-03-26T20:51:13.906Z,68.00
2023-03-26T20:53:54.672Z,69.13
2023-03-26T20:56:34.122Z,69.76
2023-03-26T20:59:13.462Z,70.04
2023-03-26T21:01:58.234Z,70.83
2023-03-26T21:04:37.584Z,71.11
2023-03-26T21:07:18.525Z,71.15
2023-03-26T21:09:59.347Z,72.10
2023-03-26T21:12:47.550Z,72.53
2023-03-26T21:15:28.895Z,72.87
2023-03-26T21:18:14.383Z,72.87
2023-03-26T21:21:20.083Z,72.67
2023-03-26T21:24:07.527Z,72.53
2023-03-26T21:26:57.544Z,72.47
2023-03-26T21:29:37.401Z,72.47
2023-03-26T21:32:18.562Z,72.71
2023-03-26T21:35:04.671Z,72.81
2023-03-26T21:37:45.287Z,72.77
2023-03-26T21:40:26.414Z,73.18
2023-03-26T21:43:06.360Z,73.40
2023-03-26T21:45:46.545Z,73.76
2023-03-26T21:48:26.517Z,73.95
2023-03-26T21:51:11.706Z,74.10
2023-03-26T21:53:51.831Z,74.46
2023-03-26T21:56:48.768Z,74.72
2023-03-26T21:59:39.905Z,75.26
2023-03-26T22:02:30.538Z,75.16
2023-03-26T22:05:20.303Z,75.05
2023-03-26T22:08:09.389Z,74.82
2023-03-26T22:10:49.186Z,74.98
2023-03-26T22:13:28.974Z,74.82
2023-03-26T22:16:08.867Z,75.29
2023-03-26T22:18:48.308Z,75.33
2023-03-26T22:21:27.629Z,74.79
2023-03-26T22:24:13.406Z,75.16
2023-03-26T22:26:52.805Z,75.03
2023-03-26T22:29:32.158Z,74.88
2023-03-26T22:32:11.784Z,74.65
2023-03-26T22:34:53.338Z,74.22
2023-03-26T22:37:32.731Z,72.95
2023-03-26T22:40:19.135Z,72.57
2023-03-26T22:42:58.686Z,72.24
2023-03-26T22:45:38.683Z,71.99
2023-03-26T22:48:18.119Z,71.60
2023-03-26T22:51:05.004Z,71.59
2023-03-26T22:53:44.904Z,71.66
2023-03-26T22:56:29.316Z,70.65
2023-03-26T22:59:10.187Z,69.49
2023-03-26T23:01:49.578Z,70.01
2023-03-26T23:04:31.481Z,68.99
2023-03-26T23:07:11.961Z,69.29
2023-03-26T23:09:51.292Z,68.88
2023-03-26T23:12:35.679Z,67.54
2023-03-26T23:15:16.456Z,67.76
2023-03-26T23:17:55.841Z,67.17
2023-03-26T23:20:40.393Z,66.03
2023-03-26T23:23:19.898Z,66.29
2023-03-26T23:26:00.088Z,66.19
2023-03-26T23:28:44.985Z,65.91
2023-03-26T23:31:26.593Z,65.41
2023-03-26T23:34:06.933Z,64.79
2023-03-26T23:36:46.764Z,65.44
2023-03-26T23:39:27.476Z,65.30
2023-03-26T23:42:06.812Z,65.98
2023-03-26T23:44:52.196Z,66.50
2023-03-26T23:47:35.423Z,66.33
2023-03-26T23:50:18.093Z,64.04
2023-03-26T23:52:57.948Z,64.24
2023-03-26T23:55:37.944Z,63.59
2023-03-26T23:58:17.247Z,63.56
